Impacts TAF Board INFO
FOR SITUATIONAL AWARENESS. NOT TO BE USED FOR FLIGHT PLANNING PURPOSES.
IDs:

KPNS - Pensacola Intl, FL, US

Issued at 0537 UTC 20 Jan 2018
Updated at 0914 UTC 20 Jan 2018
Potential Impact None Slight Moderate High
Time0853Z 20/10Z 20/11Z 20/12Z 20/13Z 20/14Z 20/15Z 20/16Z 20/17Z 20/18Z 20/19Z 20/20Z 20/21Z 20/22Z>>
Type OBS PRVL PRVL PRVL PRVL PRVL PRVL PRVL PRVL PRVL PRVL PRVL PRVL PRVL
VIS 10 >6 >6 >6 >6 >6 >6 >6 >6 >6 >6 >6 >6 >6
CIG -- -- -- 250 250 250 250 250 250 250 250 250 250 250
Cover CLR SCT SCT BKN BKN BKN BKN BKN BKN BKN BKN BKN BKN BKN
FltCat VFR VFR VFR VFR VFR VFR VFR VFR VFR VFR VFR VFR VFR VFR
WX -- -- -- -- -- -- -- -- -- -- -- -- -- --
WDir 360 VRB VRB 60 60 60 60 60 60 60 60 60 60 60
WSpd 3 0 0 2 2 2 2 2 2 2 2 2 2 2
WGst -- -- -- -- -- -- -- -- -- -- -- -- -- --

Raw TAF
KPNS 200537Z 2006/2106 00000KT P6SM SCT250
  FM201200 06002KT P6SM BKN250
  FM210000 16005KT P6SM OVC250


Raw METAR
KPNS 200853Z AUTO 36003KT 10SM CLR 04/M01 A3026 RMK AO2 SLP250 T00391006 58005
KPNS 200753Z AUTO 02004KT 10SM CLR 04/M01 A3027 RMK AO2 SLP254 T00391006
KPNS 200653Z AUTO 00000KT 10SM CLR 03/M01 A3027 RMK AO2 SLP254 T00331006

METAR Board
Radar Display
Forecast Discussion

FOR SITUATIONAL AWARENESS. NOT TO BE USED FOR FLIGHT PLANNING PURPOSES.